Hauptseite
METAR-TAF:

METAR-TAF

Flughäfen :

RAF Leeming

Leeming, England

Breite: 54-18N, Länge: 001-32W, Höhe: 40 m

Beobachtung

Neuester Wetterbericht von vor 21 Minuten, um 17:50 UTC
Wind 10 kt aus West
Temperatur 18°C
Luftfeuchtigkeit 73%
Luftdruck 1005 hPa
Sichtweite 10 km oder mehr

METAR: EGXE 251750Z AUTO 26010KT 9999 OVC045/// 18/13 Q1005

Zeit: 19:11 (18:11 UTC)

Prognose

Neuester Wetterbericht von vor 4 Stunden und 28 Minuten, um 13:43 UTC
Gültige Prognose vom 25 um 15 UTC bis 25 um 18 UTC
Wind 12 kt aus West
Sichtweite 10 km oder mehr
Aufgelockert bewölkt in der Höhe von 2500 ft

TAF: EGXE 251343Z 2515/2518 26012KT 9999 SCT025

Wetterbeobachtungen und Prognosen von mehr als 4000 Flughäfen (METAR und TAF Bericht).

Die verfügbaren Stationen werden durch gelbe und rote Markierungen auf der Karte dargestellt.

Führen Sie die Maus auf sie, um den Namen der Station zu sehen.

Darauf klicken, um die Beobachtung von Wetterbeobachtungen und Prognosen zu sehen.

Um die Karte zu ändern : klicken Sie auf den grünen Tasten mit einem schwarzen Kreuz Zum Vergrößern, auf den grünen Button mit einem Gedankenstrich zu verkleinern, oder auf die grünen Pfeile für benachbarte Karten.


METAR-TAF: